sensor_id;sensor_type;location;lat;lon;timestamp;pressure;altitude;pressure_sealevel;temperature;humidity
49315;BME280;36672;50.710;12.498;2023-02-12T00:01:08;100320.88;;;4.63;93.66
49315;BME280;36672;50.710;12.498;2023-02-12T00:03:34;100308.69;;;4.59;94.01
49315;BME280;36672;50.710;12.498;2023-02-12T00:06:00;100321.72;;;4.63;94.20
49315;BME280;36672;50.710;12.498;2023-02-12T00:08:26;100331.00;;;4.70;93.96
49315;BME280;36672;50.710;12.498;2023-02-12T00:10:52;100314.75;;;4.61;93.98
49315;BME280;36672;50.710;12.498;2023-02-12T00:13:17;100334.41;;;4.72;94.06
49315;BME280;36672;50.710;12.498;2023-02-12T00:15:43;100330.75;;;4.73;93.86
49315;BME280;36672;50.710;12.498;2023-02-12T00:18:08;100334.16;;;4.76;94.08
49315;BME280;36672;50.710;12.498;2023-02-12T00:20:34;100335.75;;;4.78;94.39
49315;BME280;36672;50.710;12.498;2023-02-12T00:23:00;100321.75;;;4.74;93.98
49315;BME280;36672;50.710;12.498;2023-02-12T00:25:26;100331.50;;;4.76;93.97
49315;BME280;36672;50.710;12.498;2023-02-12T00:27:51;100333.31;;;4.75;94.02
49315;BME280;36672;50.710;12.498;2023-02-12T00:30:16;100315.66;;;4.72;94.13
49315;BME280;36672;50.710;12.498;2023-02-12T00:32:44;100331.25;;;4.79;94.25
49315;BME280;36672;50.710;12.498;2023-02-12T00:35:09;100329.66;;;4.76;93.89
49315;BME280;36672;50.710;12.498;2023-02-12T00:37:36;100326.97;;;4.76;93.85
49315;BME280;36672;50.710;12.498;2023-02-12T00:40:01;100313.34;;;4.68;94.12
49315;BME280;36672;50.710;12.498;2023-02-12T00:42:27;100330.53;;;4.77;93.96
49315;BME280;36672;50.710;12.498;2023-02-12T00:44:52;100316.13;;;4.66;94.05
49315;BME280;36672;50.710;12.498;2023-02-12T00:47:17;100322.34;;;4.67;94.19
49315;BME280;36672;50.710;12.498;2023-02-12T00:49:43;100318.81;;;4.66;94.03
49315;BME280;36672;50.710;12.498;2023-02-12T00:52:08;100339.19;;;4.80;94.29
49315;BME280;36672;50.710;12.498;2023-02-12T00:54:33;100334.28;;;4.74;94.16
49315;BME280;36672;50.710;12.498;2023-02-12T00:56:59;100330.13;;;4.70;94.07
49315;BME280;36672;50.710;12.498;2023-02-12T00:59:25;100340.03;;;4.81;94.18
49315;BME280;36672;50.710;12.498;2023-02-12T01:01:51;100320.03;;;4.73;94.38
49315;BME280;36672;50.710;12.498;2023-02-12T01:04:17;100332.81;;;4.81;94.04
49315;BME280;36672;50.710;12.498;2023-02-12T01:06:43;100342.34;;;4.85;94.46
49315;BME280;36672;50.710;12.498;2023-02-12T01:09:08;100322.34;;;4.67;94.10
49315;BME280;36672;50.710;12.498;2023-02-12T01:11:34;100332.31;;;4.76;94.30
49315;BME280;36672;50.710;12.498;2023-02-12T01:13:59;100331.38;;;4.77;94.30
49315;BME280;36672;50.710;12.498;2023-02-12T01:16:25;100346.75;;;4.86;94.72
49315;BME280;36672;50.710;12.498;2023-02-12T01:18:52;100336.09;;;4.73;94.47
49315;BME280;36672;50.710;12.498;2023-02-12T01:21:20;100332.56;;;4.73;94.58
49315;BME280;36672;50.710;12.498;2023-02-12T01:23:47;100349.31;;;4.88;94.54
49315;BME280;36672;50.710;12.498;2023-02-12T01:26:13;100355.50;;;4.88;94.14
49315;BME280;36672;50.710;12.498;2023-02-12T01:28:40;100356.38;;;4.89;94.45
49315;BME280;36672;50.710;12.498;2023-02-12T01:31:14;100346.84;;;4.85;94.30
49315;BME280;36672;50.710;12.498;2023-02-12T01:33:40;100352.69;;;4.90;94.17
49315;BME280;36672;50.710;12.498;2023-02-12T01:36:06;100333.91;;;4.79;94.45
49315;BME280;36672;50.710;12.498;2023-02-12T01:38:32;100349.31;;;4.88;94.31
49315;BME280;36672;50.710;12.498;2023-02-12T01:41:02;100349.03;;;4.80;94.26
49315;BME280;36672;50.710;12.498;2023-02-12T01:43:28;100356.59;;;4.86;94.50
49315;BME280;36672;50.710;12.498;2023-02-12T01:45:53;100351.56;;;4.81;94.13
49315;BME280;36672;50.710;12.498;2023-02-12T01:48:20;100337.09;;;4.72;93.95
49315;BME280;36672;50.710;12.498;2023-02-12T01:50:48;100341.72;;;4.82;94.18
49315;BME280;36672;50.710;12.498;2023-02-12T01:53:15;100342.56;;;4.82;94.29
49315;BME280;36672;50.710;12.498;2023-02-12T01:55:46;100347.59;;;4.87;94.32
49315;BME280;36672;50.710;12.498;2023-02-12T01:58:12;100331.03;;;4.82;94.40
49315;BME280;36672;50.710;12.498;2023-02-12T02:00:38;100346.50;;;4.89;94.36
49315;BME280;36672;50.710;12.498;2023-02-12T02:03:04;100348.22;;;4.90;94.68
49315;BME280;36672;50.710;12.498;2023-02-12T02:05:41;100356.47;;;4.87;94.50
49315;BME280;36672;50.710;12.498;2023-02-12T02:08:09;100353.78;;;4.87;94.47
49315;BME280;36672;50.710;12.498;2023-02-12T02:10:34;100353.78;;;4.87;94.77
49315;BME280;36672;50.710;12.498;2023-02-12T02:13:00;100362.44;;;4.91;94.19
49315;BME280;36672;50.710;12.498;2023-02-12T02:15:47;100335.50;;;4.81;94.67
49315;BME280;36672;50.710;12.498;2023-02-12T02:18:42;100350.28;;;4.87;94.44
49315;BME280;36672;50.710;12.498;2023-02-12T02:21:34;100351.09;;;4.87;94.44
49315;BME280;36672;50.710;12.498;2023-02-12T02:27:26;100361.81;;;4.87;94.73
49315;BME280;36672;50.710;12.498;2023-02-12T02:30:26;100365.59;;;4.85;94.49
49315;BME280;36672;50.710;12.498;2023-02-12T02:33:21;100363.66;;;4.87;94.79
49315;BME280;36672;50.710;12.498;2023-02-12T02:36:00;100362.44;;;4.91;94.36
49315;BME280;36672;50.710;12.498;2023-02-12T02:38:52;100359.88;;;4.89;94.60
49315;BME280;36672;50.710;12.498;2023-02-12T02:41:26;100358.56;;;4.95;94.82
49315;BME280;36672;50.710;12.498;2023-02-12T02:43:53;100352.59;;;4.92;94.63
49315;BME280;36672;50.710;12.498;2023-02-12T02:48:59;100351.97;;;4.88;94.71
49315;BME280;36672;50.710;12.498;2023-02-12T02:51:32;100355.88;;;4.95;94.63
49315;BME280;36672;50.710;12.498;2023-02-12T02:54:12;100358.56;;;4.95;95.12
49315;BME280;36672;50.710;12.498;2023-02-12T02:56:41;100359.44;;;4.96;94.58
49315;BME280;36672;50.710;12.498;2023-02-12T02:59:27;100351.34;;;4.84;94.82
49315;BME280;36672;50.710;12.498;2023-02-12T03:02:03;100350.28;;;4.87;94.91
49315;BME280;36672;50.710;12.498;2023-02-12T03:04:34;100352.81;;;4.88;94.68
49315;BME280;36672;50.710;12.498;2023-02-12T03:07:10;100368.28;;;4.96;95.16
49315;BME280;36672;50.710;12.498;2023-02-12T03:09:42;100351.84;;;4.89;94.74
49315;BME280;36672;50.710;12.498;2023-02-12T03:12:12;100356.13;;;4.92;94.96
49315;BME280;36672;50.710;12.498;2023-02-12T03:14:43;100370.84;;;4.98;94.92
49315;BME280;36672;50.710;12.498;2023-02-12T03:17:15;100367.22;;;4.99;94.92
49315;BME280;36672;50.710;12.498;2023-02-12T03:19:46;100373.94;;;5.04;94.61
49315;BME280;36672;50.710;12.498;2023-02-12T03:22:20;100362.59;;;5.01;94.64
49315;BME280;36672;50.710;12.498;2023-02-12T03:24:52;100360.75;;;5.01;94.87
49315;BME280;36672;50.710;12.498;2023-02-12T03:27:33;100379.03;;;5.07;94.59
49315;BME280;36672;50.710;12.498;2023-02-12T03:30:01;100383.56;;;5.07;94.58
49315;BME280;36672;50.710;12.498;2023-02-12T03:35:22;100378.81;;;5.11;95.03
49315;BME280;36672;50.710;12.498;2023-02-12T03:40:19;100368.91;;;5.00;94.74
49315;BME280;36672;50.710;12.498;2023-02-12T03:47:53;100399.88;;;5.15;94.76
49315;BME280;36672;50.710;12.498;2023-02-12T03:50:35;100385.50;;;5.05;94.73
49315;BME280;36672;50.710;12.498;2023-02-12T03:53:04;100399.88;;;5.15;94.88
49315;BME280;36672;50.710;12.498;2023-02-12T03:55:31;100399.78;;;5.17;94.95
49315;BME280;36672;50.710;12.498;2023-02-12T03:58:01;100388.19;;;5.16;94.64
49315;BME280;36672;50.710;12.498;2023-02-12T04:00:27;100399.03;;;5.15;94.59
49315;BME280;36672;50.710;12.498;2023-02-12T04:02:53;100397.78;;;5.07;94.69
49315;BME280;36672;50.710;12.498;2023-02-12T04:05:26;100402.06;;;5.10;94.75
49315;BME280;36672;50.710;12.498;2023-02-12T04:07:53;100406.25;;;5.14;94.85
49315;BME280;36672;50.710;12.498;2023-02-12T04:10:26;100404.63;;;5.12;94.52
49315;BME280;36672;50.710;12.498;2023-02-12T04:13:05;100403.66;;;5.13;94.66
49315;BME280;36672;50.710;12.498;2023-02-12T04:15:50;100397.09;;;5.05;94.90
49315;BME280;36672;50.710;12.498;2023-02-12T04:26:33;100420.22;;;5.18;94.49
49315;BME280;36672;50.710;12.498;2023-02-12T04:31:57;100422.06;;;5.17;94.30
49315;BME280;36672;50.710;12.498;2023-02-12T04:34:38;100427.19;;;5.20;94.53
49315;BME280;36672;50.710;12.498;2023-02-12T04:37:10;100431.69;;;5.20;94.60
49315;BME280;36672;50.710;12.498;2023-02-12T04:39:40;100423.66;;;5.20;94.62
49315;BME280;36672;50.710;12.498;2023-02-12T04:42:06;100415.25;;;5.13;94.38
49315;BME280;36672;50.710;12.498;2023-02-12T04:44:34;100427.09;;;5.22;94.62
49315;BME280;36672;50.710;12.498;2023-02-12T04:47:01;100420.00;;;5.21;94.22
49315;BME280;36672;50.710;12.498;2023-02-12T04:49:26;100423.53;;;5.21;94.40
49315;BME280;36672;50.710;12.498;2023-02-12T04:51:52;100409.13;;;5.11;94.18
49315;BME280;36672;50.710;12.498;2023-02-12T04:54:19;100422.69;;;5.21;94.47
49315;BME280;36672;50.710;12.498;2023-02-12T04:56:45;100427.09;;;5.22;94.35
49315;BME280;36672;50.710;12.498;2023-02-12T04:59:13;100428.88;;;5.21;94.36
49315;BME280;36672;50.710;12.498;2023-02-12T05:01:39;100415.50;;;5.21;94.68
49315;BME280;36672;50.710;12.498;2023-02-12T05:04:06;100430.13;;;5.29;94.25
49315;BME280;36672;50.710;12.498;2023-02-12T05:06:35;100429.28;;;5.28;94.80
49315;BME280;36672;50.710;12.498;2023-02-12T05:09:03;100430.00;;;5.30;94.59
49315;BME280;36672;50.710;12.498;2023-02-12T05:11:29;100415.38;;;5.23;94.52
49315;BME280;36672;50.710;12.498;2023-02-12T05:13:54;100417.69;;;5.28;94.45
49315;BME280;36672;50.710;12.498;2023-02-12T05:16:20;100414.91;;;5.29;94.64
49315;BME280;36672;50.710;12.498;2023-02-12T05:18:45;100428.19;;;5.31;94.31
49315;BME280;36672;50.710;12.498;2023-02-12T05:21:11;100416.00;;;5.27;94.63
49315;BME280;36672;50.710;12.498;2023-02-12T05:23:37;100418.91;;;5.23;94.08
49315;BME280;36672;50.710;12.498;2023-02-12T05:26:07;100426.84;;;5.25;94.01
49315;BME280;36672;50.710;12.498;2023-02-12T05:28:33;100404.53;;;5.13;94.45
49315;BME280;36672;50.710;12.498;2023-02-12T05:31:04;100419.88;;;5.22;94.37
49315;BME280;36672;50.710;12.498;2023-02-12T05:33:30;100430.00;;;5.30;94.82
49315;BME280;36672;50.710;12.498;2023-02-12T05:36:02;100432.69;;;5.30;94.55
49315;BME280;36672;50.710;12.498;2023-02-12T05:38:27;100433.66;;;5.29;94.39
49315;BME280;36672;50.710;12.498;2023-02-12T05:40:53;100436.25;;;5.31;94.60
49315;BME280;36672;50.710;12.498;2023-02-12T05:43:18;100432.94;;;5.27;94.65
49315;BME280;36672;50.710;12.498;2023-02-12T05:45:43;100439.75;;;5.31;94.59
49315;BME280;36672;50.710;12.498;2023-02-12T05:48:09;100440.50;;;5.33;94.48
49315;BME280;36672;50.710;12.498;2023-02-12T05:50:35;100433.19;;;5.35;94.67
49315;BME280;36672;50.710;12.498;2023-02-12T05:53:01;100437.84;;;5.33;94.36
49315;BME280;36672;50.710;12.498;2023-02-12T05:55:26;100434.88;;;5.25;94.26
49315;BME280;36672;50.710;12.498;2023-02-12T05:57:51;100433.91;;;5.26;94.10
49315;BME280;36672;50.710;12.498;2023-02-12T06:00:17;100445.88;;;5.33;94.33
49315;BME280;36672;50.710;12.498;2023-02-12T06:02:42;100460.50;;;5.41;94.52
49315;BME280;36672;50.710;12.498;2023-02-12T06:05:08;100462.31;;;5.40;94.30
49315;BME280;36672;50.710;12.498;2023-02-12T06:07:33;100443.41;;;5.30;94.29
49315;BME280;36672;50.710;12.498;2023-02-12T06:09:58;100461.56;;;5.38;94.03
49315;BME280;36672;50.710;12.498;2023-02-12T06:12:24;100457.31;;;5.35;94.10
49315;BME280;36672;50.710;12.498;2023-02-12T06:14:49;100435.72;;;5.26;94.08
49315;BME280;36672;50.710;12.498;2023-02-12T06:17:15;100451.09;;;5.35;94.39
49315;BME280;36672;50.710;12.498;2023-02-12T06:19:40;100442.91;;;5.25;94.23
49315;BME280;36672;50.710;12.498;2023-02-12T06:22:05;100450.81;;;5.27;94.38
49315;BME280;36672;50.710;12.498;2023-02-12T06:24:31;100458.41;;;5.33;94.43
49315;BME280;36672;50.710;12.498;2023-02-12T06:26:56;100451.31;;;5.32;94.25
49315;BME280;36672;50.710;12.498;2023-02-12T06:29:22;100446.56;;;5.24;94.14
49315;BME280;36672;50.710;12.498;2023-02-12T06:31:47;100445.59;;;5.25;94.32
49315;BME280;36672;50.710;12.498;2023-02-12T06:34:14;100469.63;;;5.38;94.09
49315;BME280;36672;50.710;12.498;2023-02-12T06:36:43;100471.47;;;5.37;94.06
49315;BME280;36672;50.710;12.498;2023-02-12T06:39:11;100449.13;;;5.26;94.07
49315;BME280;36672;50.710;12.498;2023-02-12T06:41:37;100470.50;;;5.38;94.20
49315;BME280;36672;50.710;12.498;2023-02-12T06:44:03;100479.13;;;5.42;93.96
49315;BME280;36672;50.710;12.498;2023-02-12T06:46:29;100473.53;;;5.45;94.21
49315;BME280;36672;50.710;12.498;2023-02-12T06:48:56;100483.19;;;5.48;94.26
49315;BME280;36672;50.710;12.498;2023-02-12T06:51:22;100485.59;;;5.51;94.27
49315;BME280;36672;50.710;12.498;2023-02-12T06:53:48;100483.31;;;5.46;93.93
49315;BME280;36672;50.710;12.498;2023-02-12T06:56:15;100489.38;;;5.48;93.91
49315;BME280;36672;50.710;12.498;2023-02-12T06:58:43;100487.69;;;5.47;94.21
49315;BME280;36672;50.710;12.498;2023-02-12T07:03:38;100484.50;;;5.42;94.03
49315;BME280;36672;50.710;12.498;2023-02-12T07:06:03;100497.91;;;5.53;93.75
49315;BME280;36672;50.710;12.498;2023-02-12T07:08:29;100498.03;;;5.52;93.82
49315;BME280;36672;50.710;12.498;2023-02-12T07:10:54;100503.06;;;5.57;94.01
49315;BME280;36672;50.710;12.498;2023-02-12T07:13:19;100488.53;;;5.48;93.72
49315;BME280;36672;50.710;12.498;2023-02-12T07:15:45;100492.94;;;5.49;94.01
49315;BME280;36672;50.710;12.498;2023-02-12T07:18:10;100510.16;;;5.58;93.94
49315;BME280;36672;50.710;12.498;2023-02-12T07:20:35;100511.84;;;5.59;93.97
49315;BME280;36672;50.710;12.498;2023-02-12T07:23:01;100519.78;;;5.60;93.88
49315;BME280;36672;50.710;12.498;2023-02-12T07:25:26;100524.03;;;5.63;93.84
49315;BME280;36672;50.710;12.498;2023-02-12T07:27:51;100507.56;;;5.56;93.28
49315;BME280;36672;50.710;12.498;2023-02-12T07:30:17;100509.66;;;5.52;93.33
49315;BME280;36672;50.710;12.498;2023-02-12T07:32:43;100523.16;;;5.62;93.49
49315;BME280;36672;50.710;12.498;2023-02-12T07:35:09;100522.97;;;5.65;93.53
49315;BME280;36672;50.710;12.498;2023-02-12T07:37:34;100513.53;;;5.60;93.96
49315;BME280;36672;50.710;12.498;2023-02-12T07:40:00;100513.06;;;5.66;93.89
49315;BME280;36672;50.710;12.498;2023-02-12T07:42:25;100503.56;;;5.62;93.62
49315;BME280;36672;50.710;12.498;2023-02-12T07:44:51;100526.50;;;5.77;93.71
49315;BME280;36672;50.710;12.498;2023-02-12T07:47:16;100535.91;;;5.83;93.60
49315;BME280;36672;50.710;12.498;2023-02-12T07:49:41;100509.06;;;5.71;93.62
49315;BME280;36672;50.710;12.498;2023-02-12T07:52:07;100526.16;;;5.82;93.90
49315;BME280;36672;50.710;12.498;2023-02-12T07:54:32;100525.69;;;5.88;94.04
49315;BME280;36672;50.710;12.498;2023-02-12T07:56:57;100534.22;;;5.93;93.59
49315;BME280;36672;50.710;12.498;2023-02-12T07:59:24;100520.31;;;5.88;93.57
49315;BME280;36672;50.710;12.498;2023-02-12T08:01:51;100529.81;;;5.92;93.28
49315;BME280;36672;50.710;12.498;2023-02-12T08:04:20;100526.66;;;5.87;93.43
49315;BME280;36672;50.710;12.498;2023-02-12T08:06:47;100506.88;;;5.77;93.37
49315;BME280;36672;50.710;12.498;2023-02-12T08:09:17;100539.94;;;5.88;93.03
49315;BME280;36672;50.710;12.498;2023-02-12T08:11:43;100535.66;;;5.86;93.00
49315;BME280;36672;50.710;12.498;2023-02-12T08:14:15;100538.94;;;5.78;92.80
49315;BME280;36672;50.710;12.498;2023-02-12T08:16:41;100533.22;;;5.83;93.17
49315;BME280;36672;50.710;12.498;2023-02-12T08:19:07;100540.06;;;5.87;93.22
49315;BME280;36672;50.710;12.498;2023-02-12T08:21:32;100538.34;;;5.86;93.05
49315;BME280;36672;50.710;12.498;2023-02-12T08:23:58;100549.44;;;5.93;93.04
49315;BME280;36672;50.710;12.498;2023-02-12T08:26:29;100547.63;;;5.93;92.79
49315;BME280;36672;50.710;12.498;2023-02-12T08:29:01;100549.22;;;5.96;93.37
49315;BME280;36672;50.710;12.498;2023-02-12T08:31:32;100540.09;;;5.98;93.43
49315;BME280;36672;50.710;12.498;2023-02-12T08:33:58;100546.94;;;6.02;93.49
49315;BME280;36672;50.710;12.498;2023-02-12T08:36:30;100550.38;;;6.04;93.21
49315;BME280;36672;50.710;12.498;2023-02-12T08:38:59;100545.34;;;6.00;92.87
49315;BME280;36672;50.710;12.498;2023-02-12T08:41:26;100558.75;;;6.00;92.66
49315;BME280;36672;50.710;12.498;2023-02-12T08:43:56;100558.88;;;5.98;92.35
49315;BME280;36672;50.710;12.498;2023-02-12T08:46:24;100560.94;;;5.95;92.48
49315;BME280;36672;50.710;12.498;2023-02-12T08:48:54;100563.59;;;5.95;92.61
49315;BME280;36672;50.710;12.498;2023-02-12T08:51:23;100555.31;;;5.86;92.68
49315;BME280;36672;50.710;12.498;2023-02-12T08:53:52;100550.03;;;5.85;92.42
49315;BME280;36672;50.710;12.498;2023-02-12T08:56:18;100560.81;;;5.96;93.08
49315;BME280;36672;50.710;12.498;2023-02-12T08:58:44;100566.03;;;5.98;92.81
49315;BME280;36672;50.710;12.498;2023-02-12T09:01:12;100565.84;;;6.01;93.19
49315;BME280;36672;50.710;12.498;2023-02-12T09:03:39;100560.59;;;5.99;92.88
49315;BME280;36672;50.710;12.498;2023-02-12T09:06:05;100574.41;;;6.06;92.78
49315;BME280;36672;50.710;12.498;2023-02-12T09:08:32;100579.50;;;6.09;93.03
49315;BME280;36672;50.710;12.498;2023-02-12T09:10:58;100568.41;;;6.02;93.13
49315;BME280;36672;50.710;12.498;2023-02-12T09:13:24;100576.59;;;6.12;92.97
49315;BME280;36672;50.710;12.498;2023-02-12T09:15:49;100580.38;;;6.10;92.97
49315;BME280;36672;50.710;12.498;2023-02-12T09:18:15;100583.78;;;6.12;93.19
49315;BME280;36672;50.710;12.498;2023-02-12T09:20:42;100578.66;;;6.09;93.18
49315;BME280;36672;50.710;12.498;2023-02-12T09:23:12;100585.13;;;6.17;93.21
49315;BME280;36672;50.710;12.498;2023-02-12T09:25:42;100593.81;;;6.21;93.35
49315;BME280;36672;50.710;12.498;2023-02-12T09:28:09;100580.53;;;6.19;93.23
49315;BME280;36672;50.710;12.498;2023-02-12T09:30:35;100585.88;;;6.19;93.10
49315;BME280;36672;50.710;12.498;2023-02-12T09:33:01;100595.53;;;6.22;93.32
49315;BME280;36672;50.710;12.498;2023-02-12T09:35:27;100579.16;;;6.14;93.05
49315;BME280;36672;50.710;12.498;2023-02-12T09:37:52;100602.47;;;6.25;93.12
49315;BME280;36672;50.710;12.498;2023-02-12T09:40:35;100597.81;;;6.27;93.43
49315;BME280;36672;50.710;12.498;2023-02-12T09:45:54;100610.66;;;6.34;93.61
49315;BME280;36672;50.710;12.498;2023-02-12T09:51:03;100590.41;;;6.30;93.64
49315;BME280;36672;50.710;12.498;2023-02-12T09:53:34;100611.66;;;6.45;93.75
49315;BME280;36672;50.710;12.498;2023-02-12T09:56:01;100609.81;;;6.45;93.61
49315;BME280;36672;50.710;12.498;2023-02-12T09:58:55;100624.69;;;6.49;93.70
49315;BME280;36672;50.710;12.498;2023-02-12T10:01:23;100618.72;;;6.46;93.56
49315;BME280;36672;50.710;12.498;2023-02-12T10:03:50;100622.00;;;6.49;93.60
49315;BME280;36672;50.710;12.498;2023-02-12T10:06:20;100626.06;;;6.44;93.29
49315;BME280;36672;50.710;12.498;2023-02-12T10:09:10;100636.53;;;6.47;93.17
49315;BME280;36672;50.710;12.498;2023-02-12T10:27:41;100646.81;;;6.53;93.41
49315;BME280;36672;50.710;12.498;2023-02-12T10:33:08;100649.84;;;6.60;93.52
49315;BME280;36672;50.710;12.498;2023-02-12T10:35:43;100634.97;;;6.56;93.61
49315;BME280;36672;50.710;12.498;2023-02-12T10:38:18;100638.13;;;6.61;93.88
49315;BME280;36672;50.710;12.498;2023-02-12T10:40:44;100628.00;;;6.64;93.45
49315;BME280;36672;50.710;12.498;2023-02-12T10:43:11;100639.72;;;6.75;93.59
49315;BME280;36672;50.710;12.498;2023-02-12T10:45:39;100636.53;;;6.69;93.67
49315;BME280;36672;50.710;12.498;2023-02-12T10:48:09;100644.72;;;6.79;93.53
49315;BME280;36672;50.710;12.498;2023-02-12T10:58:38;100637.00;;;6.97;93.39
49315;BME280;36672;50.710;12.498;2023-02-12T11:01:14;100627.84;;;7.00;93.73
49315;BME280;36672;50.710;12.498;2023-02-12T11:03:40;100627.22;;;7.08;93.09
49315;BME280;36672;50.710;12.498;2023-02-12T11:08:37;100620.25;;;7.05;92.52
49315;BME280;36672;50.710;12.498;2023-02-12T11:11:08;100623.56;;;7.09;92.61
49315;BME280;36672;50.710;12.498;2023-02-12T11:13:34;100617.34;;;7.08;92.76
49315;BME280;36672;50.710;12.498;2023-02-12T11:16:00;100614.38;;;7.11;93.02
49315;BME280;36672;50.710;12.498;2023-02-12T11:18:28;100619.13;;;7.19;93.19
49315;BME280;36672;50.710;12.498;2023-02-12T11:21:00;100622.75;;;7.29;92.94
49315;BME280;36672;50.710;12.498;2023-02-12T11:23:30;100624.59;;;7.40;93.25
49315;BME280;36672;50.710;12.498;2023-02-12T11:29:02;100620.00;;;7.52;92.39
49315;BME280;36672;50.710;12.498;2023-02-12T11:31:41;100617.28;;;7.63;92.59
49315;BME280;36672;50.710;12.498;2023-02-12T11:36:50;100608.97;;;7.66;92.45
49315;BME280;36672;50.710;12.498;2023-02-12T11:39:28;100613.94;;;7.71;92.33
49315;BME280;36672;50.710;12.498;2023-02-12T11:41:59;100607.94;;;7.67;91.95
49315;BME280;36672;50.710;12.498;2023-02-12T11:44:29;100605.00;;;7.71;91.72
49315;BME280;36672;50.710;12.498;2023-02-12T11:47:02;100603.53;;;7.78;91.93
49315;BME280;36672;50.710;12.498;2023-02-12T11:49:37;100613.63;;;7.86;91.79
49315;BME280;36672;50.710;12.498;2023-02-12T11:52:03;100599.25;;;7.96;91.75
49315;BME280;36672;50.710;12.498;2023-02-12T11:54:34;100585.59;;;7.88;91.06
49315;BME280;36672;50.710;12.498;2023-02-12T11:57:03;100602.81;;;7.97;91.18
49315;BME280;36672;50.710;12.498;2023-02-12T12:02:22;100600.94;;;7.97;90.53
49315;BME280;36672;50.710;12.498;2023-02-12T12:04:54;100598.00;;;8.00;91.02
49315;BME280;36672;50.710;12.498;2023-02-12T12:07:26;100588.75;;;7.93;90.30
49315;BME280;36672;50.710;12.498;2023-02-12T12:10:17;100593.84;;;7.96;90.52
49315;BME280;36672;50.710;12.498;2023-02-12T12:12:50;100579.94;;;7.91;90.15
49315;BME280;36672;50.710;12.498;2023-02-12T12:18:25;100600.56;;;8.02;89.83
49315;BME280;36672;50.710;12.498;2023-02-12T12:21:29;100587.34;;;7.99;89.17
49315;BME280;36672;50.710;12.498;2023-02-12T12:24:16;100593.31;;;8.03;89.42
49315;BME280;36672;50.710;12.498;2023-02-12T12:26:55;100596.69;;;8.16;89.74
49315;BME280;36672;50.710;12.498;2023-02-12T12:29:46;100597.66;;;8.15;88.42
49315;BME280;36672;50.710;12.498;2023-02-12T12:32:15;100595.69;;;8.17;88.36
49315;BME280;36672;50.710;12.498;2023-02-12T12:34:42;100598.97;;;8.21;88.24
49315;BME280;36672;50.710;12.498;2023-02-12T12:37:21;100565.03;;;8.08;88.30
49315;BME280;36672;50.710;12.498;2023-02-12T12:45:11;100590.34;;;8.27;87.44
49315;BME280;36672;50.710;12.498;2023-02-12T12:56:09;100584.47;;;8.43;86.30
49315;BME280;36672;50.710;12.498;2023-02-12T13:12:32;100574.91;;;8.50;84.62
49315;BME280;36672;50.710;12.498;2023-02-12T13:15:16;100577.47;;;8.52;84.32
49315;BME280;36672;50.710;12.498;2023-02-12T13:23:02;100571.38;;;8.59;83.91
49315;BME280;36672;50.710;12.498;2023-02-12T13:25:39;100573.41;;;8.67;83.55
49315;BME280;36672;50.710;12.498;2023-02-12T13:28:12;100573.69;;;8.74;83.67
49315;BME280;36672;50.710;12.498;2023-02-12T13:30:44;100575.00;;;8.79;82.84
49315;BME280;36672;50.710;12.498;2023-02-12T13:33:20;100562.34;;;8.70;82.67
49315;BME280;36672;50.710;12.498;2023-02-12T13:35:50;100582.22;;;8.79;82.90
49315;BME280;36672;50.710;12.498;2023-02-12T13:38:21;100567.47;;;8.73;82.48
49315;BME280;36672;50.710;12.498;2023-02-12T13:40:56;100577.84;;;8.78;82.17
49315;BME280;36672;50.710;12.498;2023-02-12T13:46:34;100576.63;;;8.61;82.03
49315;BME280;36672;50.710;12.498;2023-02-12T13:51:47;100580.59;;;8.57;82.36
49315;BME280;36672;50.710;12.498;2023-02-12T13:54:31;100580.31;;;8.50;81.86
49315;BME280;36672;50.710;12.498;2023-02-12T13:57:02;100576.03;;;8.47;82.70
49315;BME280;36672;50.710;12.498;2023-02-12T14:04:42;100580.41;;;8.48;82.48
49315;BME280;36672;50.710;12.498;2023-02-12T14:07:13;100567.97;;;8.57;82.95
49315;BME280;36672;50.710;12.498;2023-02-12T14:12:26;100564.19;;;8.70;81.92
49315;BME280;36672;50.710;12.498;2023-02-12T14:15:04;100560.66;;;8.69;81.80
49315;BME280;36672;50.710;12.498;2023-02-12T14:19:57;100566.09;;;8.89;81.40
49315;BME280;36672;50.710;12.498;2023-02-12T14:24:56;100563.53;;;8.87;81.12
49315;BME280;36672;50.710;12.498;2023-02-12T14:45:58;100561.16;;;8.53;81.04
49315;BME280;36672;50.710;12.498;2023-02-12T14:57:02;100566.75;;;8.40;80.86
49315;BME280;36672;50.710;12.498;2023-02-12T14:59:33;100577.84;;;8.47;81.72
49315;BME280;36672;50.710;12.498;2023-02-12T15:02:03;100564.91;;;8.41;81.29
49315;BME280;36672;50.710;12.498;2023-02-12T15:04:32;100558.09;;;8.37;81.56
49315;BME280;36672;50.710;12.498;2023-02-12T15:07:10;100570.72;;;8.36;81.32
49315;BME280;36672;50.710;12.498;2023-02-12T15:12:14;100573.25;;;8.38;81.40
49315;BME280;36672;50.710;12.498;2023-02-12T15:14:47;100569.25;;;8.32;80.95
49315;BME280;36672;50.710;12.498;2023-02-12T15:17:20;100562.28;;;8.20;81.29
49315;BME280;36672;50.710;12.498;2023-02-12T15:19:59;100573.50;;;8.25;81.34
49315;BME280;36672;50.710;12.498;2023-02-12T15:22:42;100576.28;;;8.23;81.45
49315;BME280;36672;50.710;12.498;2023-02-12T15:25:21;100576.56;;;8.20;81.69
49315;BME280;36672;50.710;12.498;2023-02-12T15:27:50;100577.84;;;8.16;81.97
49315;BME280;36672;50.710;12.498;2023-02-12T15:30:22;100579.06;;;8.12;81.56
49315;BME280;36672;50.710;12.498;2023-02-12T15:32:48;100570.22;;;8.00;82.54
49315;BME280;36672;50.710;12.498;2023-02-12T15:35:28;100578.16;;;8.02;82.11
49315;BME280;36672;50.710;12.498;2023-02-12T15:37:56;100574.63;;;8.01;82.50
49315;BME280;36672;50.710;12.498;2023-02-12T15:40:24;100561.63;;;7.85;82.46